M/V Sacred Heart — WDD7662 — position and weather

sailwx.info

Track history (hours):
 
Tides and Currents Weather Stations Pressure Air Temp Water Temp Dewpoint Dewpoint Depression Visibility Wind Speed Wind Dir Waves Ship Positions

M/V Sacred Heart

Owner: Marquette Transportation Company Gulf-Inland, LLC, Jefferson, LA. More information available from US FCC via Universal Licensing System.

Last reported at 2018-Jun-18 19:01 UTC. Time now 2018-Jun-18 19:14 UTC.
Position N 30°11' W 093°19'.

Length 21 m; draft 3 m.

Type: . MMSI: 367189510.

Date/timePositionNaut miles runAvg speedWind from/ knotsBaromVisibWave heightAir tempDewpointWater temp
2018-Jun-18 19:01N 30°11' W 093°19'0 0.0
2018-Jun-18 18:31N 30°11' W 093°19'0 0.0
2018-Jun-18 18:01N 30°11' W 093°19'0 0.0
2018-Jun-18 17:31N 30°11' W 093°19'2 4.2
2018-Jun-18 17:00N 30°09' W 093°20'3 6.1
2018-Jun-18 16:31N 30°06' W 093°20'1 1.9
2018-Jun-18 16:01N 30°05' W 093°20'0 0.0
2018-Jun-18 15:31N 30°05' W 093°20'0 0.0
2018-Jun-18 15:01N 30°05' W 093°20'0 0.0
2018-Jun-18 14:30N 30°05' W 093°20'0 0.0
2018-Jun-18 14:00N 30°05' W 093°20'0 0.0
2018-Jun-18 13:31N 30°05' W 093°20'0 0.0
2018-Jun-18 13:01N 30°05' W 093°20'0 0.0
2018-Jun-18 12:31N 30°05' W 093°20'0 0.0
2018-Jun-18 12:01N 30°05' W 093°20'0 0.0
2018-Jun-18 11:30N 30°05' W 093°20'0 0.0
2018-Jun-18 11:00N 30°05' W 093°20'0 0.0
2018-Jun-18 10:30N 30°05' W 093°20'0 0.0
2018-Jun-18 10:00N 30°05' W 093°20'1 1.9
2018-Jun-18 09:30N 30°06' W 093°19'1 2.6
2018-Jun-18 09:00N 30°05' W 093°18'1 1.5
2018-Jun-18 08:30N 30°05' W 093°17'0 0.2
2018-Jun-18 08:00N 30°05' W 093°17'0 0.0
2018-Jun-18 07:30N 30°05' W 093°17'0 0.0
2018-Jun-18 07:00N 30°05' W 093°17'0 0.0
2018-Jun-18 06:30N 30°05' W 093°17'0 0.0
2018-Jun-18 06:00N 30°05' W 093°17'0 0.0
2018-Jun-18 05:30N 30°05' W 093°17'1 2.1
2018-Jun-18 05:00N 30°04' W 093°16'2 4.7
2018-Jun-18 04:30N 30°02' W 093°15'3 5.7
2018-Jun-18 04:00N 29°60' W 093°13'3 6.0
2018-Jun-18 03:29N 29°57' W 093°11'43 3.3
2018-Jun-17 14:25N 29°51' W 092°22'2 4.3
2018-Jun-17 14:00N 29°51' W 092°20'2 4.4
2018-Jun-17 13:29N 29°49' W 092°18'2 4.7
2018-Jun-17 13:00N 29°48' W 092°15'2 4.8
2018-Jun-17 12:30N 29°47' W 092°13'1 1.2
2018-Jun-17 12:00N 29°47' W 092°12'1 2.0
2018-Jun-17 11:30N 29°47' W 092°11'0 0.3
2018-Jun-17 11:00N 29°47' W 092°11'2 3.0
2018-Jun-17 10:28N 29°47' W 092°09'2 5.0
2018-Jun-17 10:00N 29°48' W 092°06'2 4.7
2018-Jun-17 09:30N 29°48' W 092°04'3 4.8
2018-Jun-17 08:57N 29°49' W 092°01'64 3.7
2018-Jun-16 15:50N 29°32' W 090°50'2 4.9
2018-Jun-16 15:27N 29°32' W 090°48'2 4.6
2018-Jun-16 15:00N 29°32' W 090°46'2 4.3
2018-Jun-16 14:30N 29°34' W 090°44'2 3.5
2018-Jun-16 14:00N 29°35' W 090°43'2 3.5
2018-Jun-16 13:30N 29°37' W 090°42'2 4.8
2018-Jun-16 13:00N 29°36' W 090°39'2 4.4
2018-Jun-16 12:30N 29°35' W 090°37'  
Track history (hours):
 
Tides and Currents Weather Stations Pressure Air Temp Water Temp Dewpoint Dewpoint Depression Visibility Wind Speed Wind Dir Waves Ship Positions

M/V Sacred Heart

Owner: Marquette Transportation Company Gulf-Inland, LLC, Jefferson, LA. More information available from US FCC via Universal Licensing System.

Last reported at 2018-Jun-18 19:01 UTC. Time now 2018-Jun-18 19:14 UTC.
Position N 30°11' W 093°19'.

Length 21 m; draft 3 m.

Type: . MMSI: 367189510.

Date/timePositionNaut miles runAvg speedWind from/ knotsBaromVisibWave heightAir tempDewpointWater temp
2018-Jun-18 19:01N 30°11' W 093°19'0 0.0
2018-Jun-18 18:31N 30°11' W 093°19'0 0.0
2018-Jun-18 18:01N 30°11' W 093°19'0 0.0
2018-Jun-18 17:31N 30°11' W 093°19'2 4.2
2018-Jun-18 17:00N 30°09' W 093°20'3 6.1
2018-Jun-18 16:31N 30°06' W 093°20'1 1.9
2018-Jun-18 16:01N 30°05' W 093°20'0 0.0
2018-Jun-18 15:31N 30°05' W 093°20'0 0.0
2018-Jun-18 15:01N 30°05' W 093°20'0 0.0
2018-Jun-18 14:30N 30°05' W 093°20'0 0.0
2018-Jun-18 14:00N 30°05' W 093°20'0 0.0
2018-Jun-18 13:31N 30°05' W 093°20'0 0.0
2018-Jun-18 13:01N 30°05' W 093°20'0 0.0
2018-Jun-18 12:31N 30°05' W 093°20'0 0.0
2018-Jun-18 12:01N 30°05' W 093°20'0 0.0
2018-Jun-18 11:30N 30°05' W 093°20'0 0.0
2018-Jun-18 11:00N 30°05' W 093°20'0 0.0
2018-Jun-18 10:30N 30°05' W 093°20'0 0.0
2018-Jun-18 10:00N 30°05' W 093°20'1 1.9
2018-Jun-18 09:30N 30°06' W 093°19'1 2.6
2018-Jun-18 09:00N 30°05' W 093°18'1 1.5
2018-Jun-18 08:30N 30°05' W 093°17'0 0.2
2018-Jun-18 08:00N 30°05' W 093°17'0 0.0
2018-Jun-18 07:30N 30°05' W 093°17'0 0.0
2018-Jun-18 07:00N 30°05' W 093°17'0 0.0
2018-Jun-18 06:30N 30°05' W 093°17'0 0.0
2018-Jun-18 06:00N 30°05' W 093°17'0 0.0
2018-Jun-18 05:30N 30°05' W 093°17'1 2.1
2018-Jun-18 05:00N 30°04' W 093°16'2 4.7
2018-Jun-18 04:30N 30°02' W 093°15'3 5.7
2018-Jun-18 04:00N 29°60' W 093°13'3 6.0
2018-Jun-18 03:29N 29°57' W 093°11'43 3.3
2018-Jun-17 14:25N 29°51' W 092°22'2 4.3
2018-Jun-17 14:00N 29°51' W 092°20'2 4.4
2018-Jun-17 13:29N 29°49' W 092°18'2 4.7
2018-Jun-17 13:00N 29°48' W 092°15'2 4.8
2018-Jun-17 12:30N 29°47' W 092°13'1 1.2
2018-Jun-17 12:00N 29°47' W 092°12'1 2.0
2018-Jun-17 11:30N 29°47' W 092°11'0 0.3
2018-Jun-17 11:00N 29°47' W 092°11'2 3.0
2018-Jun-17 10:28N 29°47' W 092°09'2 5.0
2018-Jun-17 10:00N 29°48' W 092°06'2 4.7
2018-Jun-17 09:30N 29°48' W 092°04'3 4.8
2018-Jun-17 08:57N 29°49' W 092°01'64 3.7
2018-Jun-16 15:50N 29°32' W 090°50'2 4.9
2018-Jun-16 15:27N 29°32' W 090°48'2 4.6
2018-Jun-16 15:00N 29°32' W 090°46'2 4.3
2018-Jun-16 14:30N 29°34' W 090°44'2 3.5
2018-Jun-16 14:00N 29°35' W 090°43'2 3.5
2018-Jun-16 13:30N 29°37' W 090°42'2 4.8
2018-Jun-16 13:00N 29°36' W 090°39'2 4.4
2018-Jun-16 12:30N 29°35' W 090°37'  

Dump ship's entire track history